Time;durP1;ratioP1;P1;durP2;ratioP2;P2;SDS_P1;SDS_P2;PMS_P1;PMS_P2;Temp;Humidity;BMP_temperature;BMP_pressure;BME280_temperature;BME280_humidity;BME280_pressure;Samples;Min_cycle;Max_cycle;Signal;HPM_P1;HPM_P2
2021/11/02 00:01:38;;;;;;;4.20;3.60;;;11.60;99.90;;;;;;4977458;28;20482;-83
2021/11/02 00:04:06;;;;;;;6.80;1.97;;;11.70;99.90;;;;;;4957900;28;20972;-83
2021/11/02 00:06:40;;;;;;;3.40;1.80;;;11.80;99.90;;;;;;4972054;28;22648;-82
2021/11/02 00:09:10;;;;;;;4.63;1.57;;;11.90;99.90;;;;;;4973617;28;20452;-83
2021/11/02 00:11:37;;;;;;;4.00;1.70;;;11.80;99.90;;;;;;4977692;28;20469;-84
2021/11/02 00:14:18;;;;;;;2.70;1.73;;;11.90;99.90;;;;;;4977164;28;20510;-84
2021/11/02 00:16:51;;;;;;;2.73;1.53;;;12.00;99.90;;;;;;5046533;23;20536;-83
2021/11/02 00:19:28;;;;;;;4.77;1.80;;;12.10;99.90;;;;;;4968633;28;20985;-85
2021/11/02 00:22:04;;;;;;;2.23;1.70;;;12.00;99.90;;;;;;4953926;28;20515;-84
2021/11/02 00:27:21;;;;;;;4.53;2.80;;;12.00;99.90;;;;;;4961627;28;20842;-83
2021/11/02 00:29:56;;;;;;;2.50;2.27;;;11.90;99.90;;;;;;4943507;28;20464;-84
2021/11/02 00:32:34;;;;;;;3.10;1.70;;;11.80;99.90;;;;;;4957688;28;20453;-84
2021/11/02 00:35:14;;;;;;;7.50;2.00;;;11.70;99.90;;;;;;4966462;28;20570;-84
2021/11/02 00:37:43;;;;;;;5.67;2.00;;;11.80;99.90;;;;;;4967559;28;20483;-84
2021/11/02 00:40:14;;;;;;;2.40;1.70;;;11.70;99.90;;;;;;4948987;28;20462;-84
2021/11/02 00:43:01;;;;;;;7.50;2.20;;;11.50;99.90;;;;;;4961879;28;20472;-84
2021/11/02 00:45:36;;;;;;;2.43;1.57;;;11.80;99.90;;;;;;4948593;28;20447;-83
2021/11/02 00:48:24;;;;;;;3.13;1.63;;;11.80;99.90;;;;;;4945955;28;20550;-84
2021/11/02 00:51:06;;;;;;;4.23;1.33;;;12.00;99.90;;;;;;4942065;28;20514;-83
2021/11/02 00:53:58;;;;;;;3.77;1.57;;;11.70;99.90;;;;;;4945306;28;20466;-83
2021/11/02 00:56:25;;;;;;;1.20;1.10;;;11.70;99.90;;;;;;4944692;28;20490;-83
2021/11/02 00:58:52;;;;;;;2.67;1.17;;;11.70;99.90;;;;;;4947641;28;20443;-83
2021/11/02 01:01:18;;;;;;;2.90;1.30;;;11.90;99.90;;;;;;4955384;28;20472;-83
2021/11/02 01:03:45;;;;;;;0.73;0.70;;;12.00;99.90;;;;;;4956400;28;20880;-82
2021/11/02 01:06:12;;;;;;;1.20;1.10;;;12.00;99.80;;;;;;4943456;28;20936;-83
2021/11/02 01:08:39;;;;;;;2.50;1.20;;;12.00;99.90;;;;;;4973339;28;20531;-84
2021/11/02 01:11:05;;;;;;;4.13;0.93;;;12.00;99.70;;;;;;4963940;28;22511;-83
2021/11/02 01:13:36;;;;;;;1.10;0.90;;;12.00;99.90;;;;;;4963519;28;20456;-83
2021/11/02 01:16:03;;;;;;;2.07;1.10;;;12.10;99.80;;;;;;4944496;28;20459;-83
2021/11/02 01:18:32;;;;;;;1.70;0.73;;;12.10;99.60;;;;;;4961342;28;20475;-83
2021/11/02 01:20:59;;;;;;;0.63;0.60;;;12.00;99.60;;;;;;4947225;28;20472;-83
2021/11/02 01:23:26;;;;;;;2.20;0.77;;;11.90;99.90;;;;;;4946592;28;22019;-83
2021/11/02 01:25:53;;;;;;;1.07;1.03;;;11.90;99.70;;;;;;4958247;28;20491;-82
2021/11/02 01:28:22;;;;;;;3.00;1.20;;;11.90;99.90;;;;;;4960718;28;21068;-83
2021/11/02 01:30:49;;;;;;;0.90;0.90;;;12.00;99.90;;;;;;4947598;28;20449;-82
2021/11/02 01:33:16;;;;;;;1.43;1.00;;;12.00;99.90;;;;;;4960660;28;20471;-82
2021/11/02 01:35:43;;;;;;;2.10;0.80;;;12.10;99.70;;;;;;4945906;28;20922;-84
2021/11/02 01:38:11;;;;;;;1.30;0.80;;;12.10;99.60;;;;;;4945266;28;20490;-83
2021/11/02 01:40:38;;;;;;;0.90;0.80;;;11.90;99.90;;;;;;4960284;28;20455;-85
2021/11/02 01:43:05;;;;;;;0.90;0.80;;;11.80;99.90;;;;;;4943801;28;20475;-85
2021/11/02 01:45:31;;;;;;;1.50;0.97;;;11.90;99.90;;;;;;4946456;28;21901;-83
2021/11/02 01:47:59;;;;;;;1.90;0.70;;;11.90;99.90;;;;;;4947832;28;20557;-84
2021/11/02 01:50:28;;;;;;;1.90;1.00;;;12.00;99.90;;;;;;4943060;28;20460;-84
2021/11/02 01:52:55;;;;;;;3.47;0.80;;;12.10;99.60;;;;;;4944439;28;21112;-83
2021/11/02 01:55:22;;;;;;;1.30;0.80;;;12.10;99.70;;;;;;4961306;28;20454;-84
2021/11/02 01:57:49;;;;;;;1.00;0.80;;;11.90;99.90;;;;;;4947279;28;20483;-83
2021/11/02 02:00:18;;;;;;;1.17;0.80;;;11.90;99.80;;;;;;4949960;28;21082;-83
2021/11/02 02:03:13;;;;;;;1.67;1.00;;;11.70;99.90;;;;;;4944327;28;20466;-84
2021/11/02 02:05:58;;;;;;;2.17;0.90;;;12.00;99.90;;;;;;4951190;28;20541;-85
2021/11/02 02:08:34;;;;;;;1.10;0.90;;;11.90;99.60;;;;;;4951516;28;20469;-84
2021/11/02 02:11:17;;;;;;;1.47;0.90;;;11.90;99.90;;;;;;4951220;28;20482;-84
2021/11/02 02:13:51;;;;;;;1.67;0.83;;;11.90;99.90;;;;;;4946050;28;20463;-84
2021/11/02 02:16:27;;;;;;;2.20;1.00;;;11.90;99.90;;;;;;4945108;28;20921;-84
2021/11/02 02:19:14;;;;;;;1.07;0.70;;;11.70;99.90;;;;;;4943805;28;20616;-84
2021/11/02 02:22:01;;;;;;;1.90;1.23;;;11.50;99.90;;;;;;4955212;28;20465;-83
2021/11/02 02:25:15;;;;;;;2.93;0.90;;;11.70;99.90;;;;;;4955947;28;20510;-83
2021/11/02 02:28:07;;;;;;;3.23;0.90;;;11.80;99.90;;;;;;4952119;28;20578;-85
2021/11/02 02:30:38;;;;;;;3.57;0.87;;;11.70;99.90;;;;;;4947434;28;20466;-84
2021/11/02 02:33:06;;;;;;;1.13;0.90;;;11.70;99.90;;;;;;4961779;28;20463;-85
2021/11/02 02:35:34;;;;;;;2.63;1.87;;;11.60;99.90;;;;;;4957272;28;20550;-85
2021/11/02 02:38:02;;;;;;;1.00;0.70;;;11.60;99.90;;;;;;4941944;28;21131;-83
2021/11/02 02:40:30;;;;;;;1.00;0.90;;;11.40;99.90;;;;;;4961522;28;20454;-84
2021/11/02 02:42:58;;;;;;;2.20;0.70;;;11.40;99.90;;;;;;4955432;28;20473;-84
2021/11/02 02:45:26;;;;;;;2.13;0.50;;;11.60;99.90;;;;;;4944347;28;20562;-84
2021/11/02 02:47:55;;;;;;;1.80;0.80;;;11.50;99.90;;;;;;4940277;28;21371;-83
2021/11/02 02:50:35;;;;;;;1.00;0.80;;;11.50;99.90;;;;;;4940086;28;20460;-84
2021/11/02 02:53:05;;;;;;;2.10;0.90;;;11.50;99.90;;;;;;4943752;28;20461;-84
2021/11/02 02:55:37;;;;;;;1.37;1.27;;;11.40;99.90;;;;;;4945691;28;20577;-83
2021/11/02 02:58:06;;;;;;;2.47;1.07;;;11.40;99.90;;;;;;4939635;28;21707;-84
2021/11/02 03:00:35;;;;;;;0.90;0.90;;;11.30;99.90;;;;;;4944660;28;20473;-83
2021/11/02 03:03:03;;;;;;;1.00;0.90;;;11.20;99.90;;;;;;4957569;28;20462;-84
2021/11/02 03:05:31;;;;;;;5.43;1.10;;;11.10;99.90;;;;;;4959542;28;20447;-83
2021/11/02 03:07:59;;;;;;;1.30;1.00;;;11.10;99.90;;;;;;4940780;28;20503;-83
2021/11/02 03:10:27;;;;;;;1.80;1.03;;;11.20;99.90;;;;;;4941304;28;20460;-84
2021/11/02 03:12:57;;;;;;;1.43;1.10;;;11.20;99.90;;;;;;4943357;28;20458;-83
2021/11/02 03:48:35;;;;;;;0.80;0.80;;;10.80;99.90;;;;;;4998468;22;20561;-84
2021/11/02 04:34:15;;;;;;;1.00;0.80;;;10.60;99.90;;;;;;4959103;28;20452;-85
2021/11/02 05:47:58;;;;;;;1.93;1.13;;;10.00;99.90;;;;;;4994317;28;20482;-80
2021/11/02 05:58:43;;;;;;;2.60;1.50;;;10.10;99.90;;;;;;4989682;28;20455;-84
2021/11/02 06:01:28;;;;;;;2.00;1.13;;;10.00;99.90;;;;;;4973154;28;20462;-83
2021/11/02 06:04:36;;;;;;;1.10;1.00;;;10.00;99.90;;;;;;4980258;28;20485;-85
2021/11/02 06:10:02;;;;;;;1.10;1.00;;;9.90;99.90;;;;;;4987282;28;20463;-85
2021/11/02 06:52:19;;;;;;;1.30;1.20;;;9.70;99.90;;;;;;4931413;29;20547;-86
2021/11/02 07:17:55;;;;;;;1.50;1.40;;;9.70;99.90;;;;;;4952628;28;21155;-84
2021/11/02 07:23:32;;;;;;;2.10;1.40;;;9.80;99.90;;;;;;4939681;28;20474;-84
2021/11/02 08:46:18;;;;;;;2.00;1.50;;;10.90;99.90;;;;;;4946825;28;20810;-83
2021/11/02 08:48:46;;;;;;;2.27;2.00;;;11.00;99.90;;;;;;4926205;28;20488;-84
2021/11/02 08:51:13;;;;;;;3.07;1.70;;;10.90;99.90;;;;;;4942816;28;20979;-82
2021/11/02 08:53:40;;;;;;;1.93;1.30;;;10.90;99.90;;;;;;4946937;28;20460;-84
2021/11/02 08:56:08;;;;;;;3.73;1.87;;;10.90;99.90;;;;;;4929820;28;20617;-85
2021/11/02 08:58:35;;;;;;;6.20;1.57;;;10.90;99.90;;;;;;4948249;28;22101;-85
2021/11/02 09:01:02;;;;;;;7.33;2.07;;;10.90;99.90;;;;;;4924560;28;20482;-84
2021/11/02 09:03:33;;;;;;;3.33;1.67;;;11.00;99.90;;;;;;4942075;28;20484;-85
2021/11/02 09:06:03;;;;;;;1.90;1.67;;;11.10;99.90;;;;;;4944357;28;21125;-85
2021/11/02 09:08:42;;;;;;;2.40;1.43;;;11.00;99.90;;;;;;4943435;28;21039;-86
2021/11/02 09:11:14;;;;;;;1.80;1.13;;;11.20;99.90;;;;;;4940036;28;20453;-84
2021/11/02 09:13:48;;;;;;;1.60;1.30;;;11.00;99.90;;;;;;4936596;28;20486;-85
2021/11/02 09:16:17;;;;;;;2.83;1.53;;;11.10;99.90;;;;;;4922863;28;20456;-83
2021/11/02 09:18:45;;;;;;;1.30;1.20;;;11.00;99.90;;;;;;4927208;28;20566;-84
2021/11/02 09:21:12;;;;;;;2.07;1.87;;;10.90;99.90;;;;;;4923693;28;20513;-82
2021/11/02 09:23:41;;;;;;;2.87;1.70;;;11.00;99.90;;;;;;4922189;28;20470;-82
2021/11/02 09:26:08;;;;;;;2.80;1.10;;;10.80;99.90;;;;;;4942559;28;20492;-85
2021/11/02 09:28:35;;;;;;;1.93;1.20;;;10.90;99.90;;;;;;4941935;28;20491;-82
2021/11/02 09:31:04;;;;;;;3.07;1.47;;;11.00;99.90;;;;;;4938579;28;20461;-83
2021/11/02 09:33:32;;;;;;;3.33;1.20;;;11.10;99.90;;;;;;4950002;28;20441;-84
2021/11/02 09:36:02;;;;;;;1.43;1.23;;;11.00;99.90;;;;;;4944822;28;20941;-82
2021/11/02 09:38:44;;;;;;;1.83;1.47;;;10.90;99.90;;;;;;4940336;28;20499;-83
2021/11/02 09:41:42;;;;;;;2.33;1.47;;;10.90;99.90;;;;;;4939662;28;20953;-83
2021/11/02 09:44:34;;;;;;;2.17;1.50;;;10.80;99.90;;;;;;4937530;28;20460;-83
2021/11/02 09:47:33;;;;;;;1.57;1.40;;;11.20;99.90;;;;;;4939274;28;20489;-84
2021/11/02 09:50:57;;;;;;;3.70;1.57;;;11.20;99.90;;;;;;4940948;28;20476;-84
2021/11/02 09:53:46;;;;;;;1.93;1.30;;;11.10;99.90;;;;;;4894430;29;22328;-83
2021/11/02 09:56:42;;;;;;;4.20;1.67;;;11.20;99.90;;;;;;4893617;29;21006;-83
2021/11/02 09:59:36;;;;;;;2.40;1.60;;;11.10;99.90;;;;;;4938296;28;20469;-83
2021/11/02 10:02:47;;;;;;;4.00;1.40;;;11.20;99.90;;;;;;4923805;28;20463;-84
2021/11/02 10:05:19;;;;;;;1.60;1.50;;;11.10;99.90;;;;;;4929548;28;21657;-85
2021/11/02 10:08:06;;;;;;;2.10;1.67;;;11.20;99.90;;;;;;4939931;28;20496;-83
2021/11/02 10:11:03;;;;;;;1.90;1.63;;;11.20;99.90;;;;;;4946301;28;20461;-84
2021/11/02 10:13:50;;;;;;;4.13;1.80;;;11.10;99.90;;;;;;4940878;28;20472;-83
2021/11/02 10:16:41;;;;;;;2.47;2.27;;;11.10;99.90;;;;;;4923459;28;20485;-84
2021/11/02 10:19:29;;;;;;;3.57;1.93;;;11.00;99.90;;;;;;4941371;28;20471;-84
2021/11/02 10:22:17;;;;;;;3.50;1.97;;;10.90;99.90;;;;;;4941200;28;22009;-83
2021/11/02 10:25:10;;;;;;;2.10;1.70;;;11.10;99.90;;;;;;4937179;28;20461;-83
2021/11/02 10:28:21;;;;;;;2.70;2.17;;;10.90;99.90;;;;;;4916899;28;20478;-81
2021/11/02 10:30:50;;;;;;;3.30;2.50;;;11.00;99.90;;;;;;4900670;28;20453;-85
2021/11/02 10:33:24;;;;;;;3.27;2.20;;;10.90;99.90;;;;;;4933785;28;20537;-85
2021/11/02 10:36:30;;;;;;;2.30;1.87;;;10.90;99.90;;;;;;4937353;28;20476;-84
2021/11/02 10:39:19;;;;;;;2.40;2.20;;;11.00;99.90;;;;;;4938417;28;20471;-85
2021/11/02 10:41:59;;;;;;;1.90;1.53;;;10.80;99.90;;;;;;4936631;28;20470;-85
2021/11/02 10:44:34;;;;;;;2.53;2.10;;;11.10;99.90;;;;;;4930343;28;20941;-85
2021/11/02 10:47:09;;;;;;;2.73;2.17;;;11.20;99.90;;;;;;4937659;28;20596;-85
2021/11/02 10:49:54;;;;;;;2.03;1.60;;;11.20;99.90;;;;;;4937215;28;20487;-85
2021/11/02 10:52:31;;;;;;;3.33;1.90;;;11.20;99.90;;;;;;3911319;28;10000726;-85
2021/11/02 10:55:07;;;;;;;5.23;2.33;;;11.40;99.90;;;;;;4924368;28;20204;-86
2021/11/02 10:57:52;;;;;;;4.77;3.03;;;11.30;99.90;;;;;;4941666;28;20636;-85
2021/11/02 11:00:20;;;;;;;2.70;1.80;;;11.40;99.90;;;;;;4944876;28;20463;-85
2021/11/02 11:02:50;;;;;;;2.10;1.90;;;11.40;99.90;;;;;;4929835;28;20452;-86
2021/11/02 11:05:18;;;;;;;2.10;1.50;;;11.40;99.90;;;;;;4933454;28;20461;-85
2021/11/02 11:07:46;;;;;;;3.80;2.30;;;11.30;99.90;;;;;;4958926;28;20470;-86
2021/11/02 11:10:15;;;;;;;2.53;1.93;;;11.60;99.90;;;;;;4960486;28;20460;-87
2021/11/02 11:12:48;;;;;;;3.03;2.37;;;11.70;99.90;;;;;;4942327;28;20452;-86
2021/11/02 11:15:36;;;;;;;3.20;2.40;;;11.70;99.90;;;;;;4949235;28;20441;-86
2021/11/02 11:18:18;;;;;;;3.13;2.47;;;11.70;99.90;;;;;;4964599;28;21319;-87
2021/11/02 11:20:48;;;;;;;2.47;2.27;;;11.70;99.90;;;;;;4935241;28;20470;-85
2021/11/02 11:23:16;;;;;;;2.60;2.40;;;11.60;99.90;;;;;;4949470;28;20472;-87
2021/11/02 11:25:57;;;;;;;2.43;2.23;;;12.00;99.90;;;;;;4952342;28;20511;-87
2021/11/02 11:28:36;;;;;;;3.43;2.17;;;12.00;99.90;;;;;;4971368;28;20483;-87
2021/11/02 11:31:04;;;;;;;3.00;1.90;;;11.70;99.90;;;;;;4954546;28;20482;-84
2021/11/02 11:33:32;;;;;;;7.17;1.97;;;11.60;99.90;;;;;;4943942;28;20453;-87
2021/11/02 11:36:07;;;;;;;1.97;1.87;;;11.50;99.90;;;;;;4938324;28;20460;-88
2021/11/02 11:38:43;;;;;;;2.37;2.00;;;11.50;99.90;;;;;;4936732;28;20499;-87
2021/11/02 11:41:16;;;;;;;3.20;2.00;;;11.80;99.90;;;;;;4935291;28;20514;-87
2021/11/02 11:43:43;;;;;;;1.93;1.80;;;12.20;99.90;;;;;;4952178;28;20470;-86
2021/11/02 11:46:17;;;;;;;8.40;1.90;;;12.30;99.90;;;;;;4930094;28;20459;-87
2021/11/02 11:48:55;;;;;;;1.70;1.60;;;12.30;99.90;;;;;;4950934;28;20587;-86
2021/11/02 11:51:34;;;;;;;1.60;1.50;;;12.10;99.90;;;;;;4933784;28;20551;-85
2021/11/02 11:54:08;;;;;;;2.23;2.13;;;12.30;99.90;;;;;;4937791;28;20523;-87
2021/11/02 11:56:39;;;;;;;2.03;1.83;;;12.40;99.90;;;;;;4943553;28;20480;-86
2021/11/02 11:59:16;;;;;;;3.57;2.50;;;12.30;99.90;;;;;;4959658;28;20464;-86
2021/11/02 12:02:00;;;;;;;5.80;2.10;;;12.20;99.90;;;;;;4937864;28;20465;-86
2021/11/02 12:04:47;;;;;;;2.67;2.47;;;12.00;99.90;;;;;;4955512;28;20463;-86
2021/11/02 12:07:26;;;;;;;3.73;1.70;;;12.20;99.90;;;;;;4934499;28;20516;-86
2021/11/02 12:09:54;;;;;;;2.03;1.73;;;12.50;99.90;;;;;;4949956;28;20503;-86
2021/11/02 12:12:24;;;;;;;5.53;1.63;;;12.60;99.90;;;;;;4934566;28;20965;-87
2021/11/02 12:14:54;;;;;;;2.83;1.93;;;12.50;99.90;;;;;;4948432;28;20506;-85
2021/11/02 12:17:24;;;;;;;3.17;1.80;;;12.30;99.90;;;;;;4931799;28;20487;-85
2021/11/02 12:19:59;;;;;;;1.80;1.40;;;12.40;99.90;;;;;;4929956;28;20464;-86
2021/11/02 12:25:59;;;;;;;3.33;2.10;;;12.10;99.90;;;;;;4948919;28;22735;-86
2021/11/02 12:28:35;;;;;;;2.03;1.43;;;12.00;99.90;;;;;;4933673;28;20475;-85
2021/11/02 12:31:11;;;;;;;1.70;1.60;;;12.20;99.90;;;;;;4954828;28;20460;-85
2021/11/02 12:33:50;;;;;;;2.40;1.83;;;12.20;99.90;;;;;;4932559;28;20580;-86
2021/11/02 12:36:23;;;;;;;2.23;1.40;;;12.00;99.90;;;;;;4933472;28;20495;-86
2021/11/02 12:39:00;;;;;;;3.07;1.57;;;11.90;99.90;;;;;;4933795;28;20487;-84
2021/11/02 12:41:27;;;;;;;4.27;1.60;;;12.10;99.90;;;;;;4938023;28;20470;-85
2021/11/02 12:44:10;;;;;;;2.33;1.80;;;12.00;99.90;;;;;;4934939;28;20460;-87
2021/11/02 12:49:57;;;;;;;2.43;1.87;;;12.00;99.90;;;;;;4987155;28;20502;-86
2021/11/02 12:52:34;;;;;;;3.03;2.10;;;11.90;99.90;;;;;;4966689;28;20467;-86
2021/11/02 12:58:25;;;;;;;2.70;1.93;;;12.00;99.90;;;;;;5503366;23;20499;-85
2021/11/02 13:00:59;;;;;;;2.20;2.00;;;11.90;99.90;;;;;;4972271;28;20461;-88
2021/11/02 13:03:29;;;;;;;2.07;1.90;;;11.90;99.90;;;;;;4973174;28;20887;-86
2021/11/02 13:06:06;;;;;;;2.80;2.20;;;12.10;99.90;;;;;;4989247;28;20447;-86
2021/11/02 13:08:57;;;;;;;2.00;1.73;;;12.30;99.90;;;;;;4977018;28;20491;-85
2021/11/02 13:11:26;;;;;;;3.33;1.77;;;12.20;99.90;;;;;;4961486;28;20965;-86
2021/11/02 13:13:58;;;;;;;1.83;1.73;;;11.80;99.90;;;;;;4955538;28;21975;-85
2021/11/02 13:16:27;;;;;;;2.40;1.70;;;11.80;99.90;;;;;;4971617;28;20479;-84
2021/11/02 13:19:27;;;;;;;1.87;1.73;;;12.00;99.90;;;;;;4959822;28;21143;-85
2021/11/02 13:22:44;;;;;;;5.30;2.27;;;11.90;99.90;;;;;;4974068;28;20464;-86
2021/11/02 13:25:23;;;;;;;4.07;2.33;;;11.60;99.90;;;;;;4973196;28;20471;-87
2021/11/02 13:28:20;;;;;;;2.80;2.30;;;11.60;99.90;;;;;;4927513;28;21760;-86
2021/11/02 13:30:49;;;;;;;2.33;1.80;;;11.60;99.90;;;;;;4914326;28;20557;-86
2021/11/02 13:33:20;;;;;;;1.47;1.37;;;11.60;99.90;;;;;;4978955;28;20464;-86
2021/11/02 13:36:17;;;;;;;3.50;2.13;;;11.80;99.90;;;;;;4979790;28;20464;-86
2021/11/02 13:38:44;;;;;;;2.57;2.03;;;11.70;99.90;;;;;;4960627;28;20606;-86
2021/11/02 13:41:30;;;;;;;2.40;1.80;;;11.70;99.90;;;;;;4956265;28;22079;-85
2021/11/02 13:44:04;;;;;;;2.17;1.97;;;11.60;99.90;;;;;;4953522;28;21953;-87
2021/11/02 13:46:37;;;;;;;2.50;2.27;;;11.70;99.90;;;;;;4971278;28;20517;-88
2021/11/02 13:49:07;;;;;;;3.53;2.57;;;11.70;99.90;;;;;;4958474;28;20515;-86
2021/11/02 13:51:36;;;;;;;2.10;1.80;;;11.60;99.90;;;;;;4969180;28;20468;-85
2021/11/02 13:54:05;;;;;;;1.80;1.70;;;11.60;99.90;;;;;;4961421;28;20459;-87
2021/11/02 13:56:35;;;;;;;2.40;2.17;;;11.50;99.90;;;;;;4973605;28;20520;-85
2021/11/02 13:59:05;;;;;;;1.90;1.70;;;11.70;99.90;;;;;;4953672;28;20480;-88
2021/11/02 14:01:56;;;;;;;2.80;2.00;;;11.60;99.90;;;;;;4955750;28;20464;-86
2021/11/02 14:04:37;;;;;;;2.50;2.13;;;11.70;99.90;;;;;;4953619;28;20463;-87
2021/11/02 14:07:15;;;;;;;2.47;2.27;;;11.70;99.90;;;;;;4954498;28;20611;-89
2021/11/02 14:09:51;;;;;;;4.33;2.63;;;11.70;99.90;;;;;;4953170;28;20480;-86
2021/11/02 14:12:21;;;;;;;3.40;2.00;;;11.60;99.90;;;;;;4957503;28;20458;-87
2021/11/02 14:14:48;;;;;;;2.60;2.33;;;11.40;99.90;;;;;;4949044;28;20806;-87
2021/11/02 14:17:20;;;;;;;2.90;2.47;;;11.50;99.90;;;;;;4968298;28;20484;-86
2021/11/02 14:19:52;;;;;;;4.03;2.60;;;11.70;99.90;;;;;;4958113;28;20451;-85
2021/11/02 14:22:50;;;;;;;5.00;3.07;;;11.70;99.90;;;;;;4958515;28;20444;-87
2021/11/02 14:25:19;;;;;;;3.27;2.60;;;11.60;99.90;;;;;;4968658;28;21330;-87
2021/11/02 14:27:49;;;;;;;2.47;2.27;;;11.50;99.90;;;;;;4968089;28;20476;-87
2021/11/02 14:33:45;;;;;;;3.10;2.20;;;11.80;99.90;;;;;;4964430;28;20464;-84
2021/11/02 14:36:13;;;;;;;2.40;2.20;;;11.90;99.90;;;;;;4969406;28;20596;-85
2021/11/02 14:38:48;;;;;;;3.90;3.03;;;11.70;99.90;;;;;;4953136;28;20460;-85
2021/11/02 14:41:28;;;;;;;3.40;2.30;;;12.10;99.90;;;;;;4954103;28;20450;-86
2021/11/02 14:44:16;;;;;;;2.97;2.70;;;11.90;99.90;;;;;;4952327;28;20564;-86
2021/11/02 14:46:59;;;;;;;8.40;3.20;;;12.20;99.90;;;;;;4970190;28;20514;-86
2021/11/02 14:49:29;;;;;;;3.20;2.90;;;12.20;99.90;;;;;;4954891;28;20548;-86
2021/11/02 14:52:00;;;;;;;4.40;4.00;;;12.20;99.90;;;;;;4953854;28;20457;-87
2021/11/02 14:54:31;;;;;;;4.47;3.13;;;12.20;99.90;;;;;;4953799;28;20460;-86
2021/11/02 14:57:24;;;;;;;4.10;3.70;;;12.00;99.90;;;;;;4956675;28;20883;-85
2021/11/02 15:00:03;;;;;;;8.80;3.40;;;12.00;99.90;;;;;;4955981;28;20454;-88
2021/11/02 15:02:51;;;;;;;3.43;3.13;;;11.60;99.90;;;;;;4951086;28;20813;-84
2021/11/02 15:05:23;;;;;;;3.03;2.77;;;11.50;99.90;;;;;;4974280;28;20487;-86
2021/11/02 15:07:53;;;;;;;6.70;3.10;;;11.70;99.90;;;;;;4953562;28;20583;-84
2021/11/02 15:10:23;;;;;;;6.23;3.70;;;11.80;99.90;;;;;;4963373;28;20562;-87
2021/11/02 15:12:51;;;;;;;5.60;3.20;;;11.70;99.90;;;;;;4953073;28;20451;-85
2021/11/02 15:15:27;;;;;;;3.33;3.00;;;11.60;99.90;;;;;;4959741;28;20893;-86
2021/11/02 15:18:09;;;;;;;3.70;2.93;;;11.70;99.90;;;;;;4956230;28;20832;-86
2021/11/02 15:20:40;;;;;;;4.93;3.13;;;11.70;99.90;;;;;;4952814;28;22038;-84
2021/11/02 15:23:12;;;;;;;2.70;2.50;;;11.50;99.90;;;;;;4953850;28;20448;-85
2021/11/02 15:25:45;;;;;;;3.67;2.50;;;11.60;99.90;;;;;;4953314;28;20463;-87
2021/11/02 15:28:17;;;;;;;2.57;2.37;;;11.50;99.90;;;;;;4957703;28;21043;-85
2021/11/02 15:30:50;;;;;;;3.33;2.63;;;11.50;99.90;;;;;;4959866;28;20479;-87
2021/11/02 15:33:32;;;;;;;2.83;2.63;;;11.80;99.90;;;;;;4971114;28;20465;-85
2021/11/02 15:36:21;;;;;;;3.83;3.17;;;11.70;99.90;;;;;;4955366;28;20448;-84
2021/11/02 15:39:06;;;;;;;3.83;3.37;;;11.80;99.90;;;;;;4952233;28;20448;-86
2021/11/02 15:41:40;;;;;;;5.23;4.50;;;11.60;99.90;;;;;;4976009;28;20476;-85
2021/11/02 15:44:15;;;;;;;3.90;3.47;;;11.40;99.90;;;;;;4964882;28;21079;-86
2021/11/02 15:46:42;;;;;;;5.10;3.40;;;11.70;99.90;;;;;;4960293;28;20476;-86
2021/11/02 15:49:13;;;;;;;4.40;2.20;;;11.60;99.90;;;;;;4906437;28;20483;-87
2021/11/02 15:51:51;;;;;;;2.10;2.00;;;11.40;99.90;;;;;;4898338;28;20467;-87
2021/11/02 15:54:34;;;;;;;3.60;1.80;;;11.30;99.90;;;;;;4962901;28;20475;-87
2021/11/02 15:57:19;;;;;;;3.00;2.80;;;11.40;99.90;;;;;;4947786;28;22237;-85
2021/11/02 16:00:16;;;;;;;3.43;2.00;;;11.50;99.90;;;;;;4967042;28;20459;-85
2021/11/02 16:02:48;;;;;;;3.37;2.40;;;11.40;99.90;;;;;;4948197;28;20457;-86
2021/11/02 16:05:51;;;;;;;4.73;2.80;;;11.80;99.90;;;;;;4951790;28;20551;-86
2021/11/02 16:08:24;;;;;;;2.33;2.10;;;12.00;99.90;;;;;;4965459;28;20481;-87
2021/11/02 16:11:14;;;;;;;2.53;2.33;;;12.00;99.90;;;;;;4966111;28;21947;-87
2021/11/02 16:13:41;;;;;;;3.27;2.10;;;11.70;99.90;;;;;;4951310;28;20472;-85
2021/11/02 16:16:16;;;;;;;7.80;4.40;;;11.50;99.90;;;;;;4950916;28;20908;-86
2021/11/02 16:19:14;;;;;;;3.90;2.73;;;11.60;99.90;;;;;;4959866;28;20463;-85
2021/11/02 16:22:01;;;;;;;4.00;2.00;;;11.50;99.90;;;;;;4949901;28;20462;-85
2021/11/02 16:24:34;;;;;;;5.10;2.70;;;11.60;99.90;;;;;;4945835;28;20496;-85
2021/11/02 16:27:33;;;;;;;7.60;2.60;;;11.70;99.90;;;;;;4946354;28;20479;-87
2021/11/02 16:30:24;;;;;;;6.37;2.67;;;11.70;99.90;;;;;;4946540;28;20502;-85
2021/11/02 16:32:54;;;;;;;8.73;5.33;;;11.40;99.90;;;;;;4947542;28;20464;-87
2021/11/02 16:35:54;;;;;;;3.70;2.67;;;11.30;99.90;;;;;;4961991;28;20495;-86
2021/11/02 16:38:43;;;;;;;4.50;1.87;;;11.20;99.90;;;;;;4948892;28;20552;-85
2021/11/02 16:41:25;;;;;;;4.10;3.30;;;11.10;99.90;;;;;;4946455;28;21482;-84
2021/11/02 16:44:15;;;;;;;2.47;2.23;;;11.30;99.90;;;;;;4947558;28;20483;-85
2021/11/02 16:46:51;;;;;;;2.73;2.17;;;11.20;99.90;;;;;;4960760;28;20483;-86
2021/11/02 16:49:28;;;;;;;2.60;2.40;;;11.20;99.90;;;;;;4944740;28;20466;-87
2021/11/02 16:52:00;;;;;;;2.70;2.30;;;11.60;99.90;;;;;;4945805;28;20867;-87
2021/11/02 16:54:37;;;;;;;2.17;1.97;;;11.70;99.90;;;;;;4618311;28;10000023;-87
2021/11/02 16:57:16;;;;;;;3.30;1.93;;;11.60;99.90;;;;;;4940633;28;20848;-86
2021/11/02 17:00:04;;;;;;;2.30;2.10;;;11.50;99.90;;;;;;4949156;28;20562;-84
2021/11/02 17:02:37;;;;;;;2.50;2.30;;;11.50;99.90;;;;;;4967138;28;20519;-87
2021/11/02 17:05:24;;;;;;;3.43;2.97;;;11.40;99.90;;;;;;4947238;28;20467;-88
2021/11/02 17:08:02;;;;;;;3.33;2.80;;;11.30;99.90;;;;;;4946484;28;20482;-85
2021/11/02 17:10:32;;;;;;;2.33;2.23;;;11.40;99.90;;;;;;4946892;28;20506;-85
2021/11/02 17:13:26;;;;;;;3.10;2.50;;;11.30;99.90;;;;;;4946756;28;20480;-86
2021/11/02 17:15:59;;;;;;;2.73;2.10;;;11.30;99.90;;;;;;4942270;28;20460;-86
2021/11/02 17:18:52;;;;;;;3.03;2.73;;;11.40;99.90;;;;;;4948567;28;20458;-87
2021/11/02 17:21:26;;;;;;;3.10;2.40;;;11.40;99.90;;;;;;4980354;28;20516;-87
2021/11/02 17:23:55;;;;;;;3.23;2.13;;;11.40;99.90;;;;;;4977929;28;20455;-85
2021/11/02 17:26:25;;;;;;;3.53;2.30;;;11.30;99.90;;;;;;4963775;28;20474;-85
2021/11/02 17:28:54;;;;;;;2.83;2.63;;;11.10;99.90;;;;;;4983669;28;20474;-86
2021/11/02 17:31:26;;;;;;;3.10;2.40;;;11.20;99.90;;;;;;4947237;28;20485;-86
2021/11/02 17:33:56;;;;;;;2.87;2.67;;;11.30;99.90;;;;;;4947846;28;20465;-86
2021/11/02 17:36:24;;;;;;;3.43;3.13;;;11.30;99.90;;;;;;4949446;28;20471;-85
2021/11/02 17:38:54;;;;;;;11.00;4.17;;;11.30;99.90;;;;;;4949761;28;20999;-86
2021/11/02 17:41:22;;;;;;;4.07;3.50;;;11.30;99.90;;;;;;4954362;28;20459;-86
2021/11/02 17:43:52;;;;;;;6.97;4.43;;;11.30;99.90;;;;;;4950454;28;20457;-86
2021/11/02 17:48:58;;;;;;;6.07;4.97;;;11.40;99.90;;;;;;4988981;28;20505;-85
2021/11/02 17:51:26;;;;;;;8.23;5.27;;;11.40;99.90;;;;;;4952243;28;20579;-86
2021/11/02 17:53:56;;;;;;;7.63;4.80;;;11.40;99.90;;;;;;4970240;28;20436;-86
2021/11/02 17:56:24;;;;;;;8.07;4.90;;;11.40;99.90;;;;;;4961226;28;20481;-84
2021/11/02 17:58:52;;;;;;;6.23;4.70;;;11.40;99.90;;;;;;4969114;28;20465;-87
2021/11/02 18:01:24;;;;;;;7.70;5.47;;;11.30;99.90;;;;;;4984067;28;20574;-87
2021/11/02 18:03:52;;;;;;;7.23;5.33;;;11.30;99.90;;;;;;4973977;28;20451;-87
2021/11/02 18:06:23;;;;;;;8.27;5.23;;;11.30;99.90;;;;;;4970217;28;20474;-87
2021/11/02 18:13:24;;;;;;;;;;;;;;;;;;;;;
2021/11/02 18:16:29;;;;;;;4.57;3.33;;;11.10;99.90;;;;;;4988326;28;20949;-86
2021/11/02 18:23:34;;;;;;;4.87;4.03;;;11.30;99.90;;;;;;4910272;29;20641;-86
2021/11/02 18:26:42;;;;;;;5.50;4.70;;;11.30;99.90;;;;;;4943227;28;22014;-86
2021/11/02 18:29:39;;;;;;;7.60;5.30;;;11.20;99.90;;;;;;4986159;28;21117;-85
2021/11/02 18:32:47;;;;;;;6.93;5.60;;;11.10;99.90;;;;;;4973102;28;20473;-87
2021/11/02 18:35:21;;;;;;;8.40;5.57;;;11.00;99.90;;;;;;4957560;28;21245;-85
2021/11/02 18:38:08;;;;;;;6.60;4.90;;;11.00;99.90;;;;;;4910330;28;20479;-88
2021/11/02 18:41:26;;;;;;;8.83;7.13;;;11.00;99.90;;;;;;4968536;28;21282;-86
2021/11/02 18:44:20;;;;;;;9.30;5.67;;;10.90;99.90;;;;;;4938173;28;22217;-84
2021/11/02 18:46:47;;;;;;;7.33;6.07;;;10.80;99.90;;;;;;4934919;28;20574;-85
2021/11/02 18:49:15;;;;;;;7.63;5.50;;;10.80;99.90;;;;;;4969324;28;20627;-85
2021/11/02 18:51:46;;;;;;;6.17;5.00;;;10.80;99.90;;;;;;4967666;28;20491;-86
2021/11/02 18:54:24;;;;;;;6.27;5.23;;;11.00;99.90;;;;;;4967163;28;20467;-85
2021/11/02 18:56:54;;;;;;;7.03;5.37;;;11.10;99.90;;;;;;5014053;23;20556;-84
2021/11/02 18:59:33;;;;;;;7.20;4.83;;;11.10;99.90;;;;;;4977056;28;20578;-84
2021/11/02 19:02:02;;;;;;;6.00;4.17;;;11.10;99.90;;;;;;4958334;28;20543;-88
2021/11/02 19:04:30;;;;;;;6.07;4.93;;;11.10;99.90;;;;;;4958359;28;20465;-85
2021/11/02 19:07:01;;;;;;;7.33;5.20;;;11.10;99.90;;;;;;4955596;28;21018;-85
2021/11/02 19:09:28;;;;;;;7.57;5.73;;;11.00;99.90;;;;;;4968542;28;20995;-85